createdAt,value
2024-01-08T00:00:41.802Z,100468.69
2024-01-08T00:03:09.031Z,100466.03
2024-01-08T00:05:40.692Z,100465.16
2024-01-08T00:08:08.510Z,100466.94
2024-01-08T00:10:39.469Z,100465.16
2024-01-08T00:13:06.334Z,100463.25
2024-01-08T00:15:33.573Z,100466.81
2024-01-08T00:18:00.601Z,100474.00
2024-01-08T00:20:27.625Z,100460.72
2024-01-08T00:22:54.439Z,100474.03
2024-01-08T00:25:23.182Z,100467.84
2024-01-08T00:27:53.267Z,100475.84
2024-01-08T00:30:20.470Z,100475.88
2024-01-08T00:32:48.340Z,100475.84
2024-01-08T00:35:15.760Z,100482.06
2024-01-08T00:37:43.014Z,100477.69
2024-01-08T00:40:11.119Z,100483.03
2024-01-08T00:42:39.238Z,100483.03
2024-01-08T00:45:07.005Z,100480.34
2024-01-08T00:47:34.419Z,100478.56
2024-01-08T00:50:02.766Z,100481.22
2024-01-08T00:52:30.491Z,100484.78
2024-01-08T00:55:02.973Z,100490.09
2024-01-08T00:57:30.073Z,100493.69
2024-01-08T00:59:56.753Z,100499.00
2024-01-08T01:02:23.993Z,100504.41
2024-01-08T01:04:51.131Z,100501.78
2024-01-08T01:07:18.180Z,100505.34
2024-01-08T01:09:45.016Z,100506.25
2024-01-08T01:12:11.713Z,100501.84
2024-01-08T01:14:38.463Z,100502.72
2024-01-08T01:17:05.320Z,100500.97
2024-01-08T01:19:32.049Z,100502.72
2024-01-08T01:21:58.767Z,100508.94
2024-01-08T01:24:25.794Z,100502.72
2024-01-08T01:26:52.579Z,100513.38
2024-01-08T01:29:19.321Z,100503.63
2024-01-08T01:31:46.096Z,100499.19
2024-01-08T01:34:13.705Z,100511.59
2024-01-08T01:36:41.073Z,100512.56
2024-01-08T01:39:08.208Z,100519.66
2024-01-08T01:41:35.128Z,100520.63
2024-01-08T01:44:02.019Z,100521.59
2024-01-08T01:46:43.038Z,100525.13
2024-01-08T01:49:20.184Z,100524.09
2024-01-08T01:51:48.668Z,100519.63
2024-01-08T01:54:17.499Z,100521.41
2024-01-08T01:56:50.826Z,100517.00
2024-01-08T01:59:19.185Z,100509.84
2024-01-08T02:01:46.750Z,100518.69
2024-01-08T02:04:18.388Z,100515.13
2024-01-08T02:06:46.258Z,100518.63
2024-01-08T02:09:17.638Z,100523.97
2024-01-08T02:11:45.358Z,100524.91
2024-01-08T02:14:13.827Z,100523.16
2024-01-08T02:16:43.117Z,100522.25
2024-01-08T02:19:10.453Z,100530.25
2024-01-08T02:21:37.920Z,100534.72
2024-01-08T02:24:05.834Z,100529.38
2024-01-08T02:26:32.741Z,100532.03
2024-01-08T02:28:59.596Z,100537.38
2024-01-08T02:31:26.412Z,100531.16
2024-01-08T02:33:53.162Z,100538.31
2024-01-08T02:36:19.930Z,100538.34
2024-01-08T02:38:47.164Z,100540.13
2024-01-08T02:41:13.865Z,100541.94
2024-01-08T02:43:40.698Z,100545.53
2024-01-08T02:46:07.516Z,100532.22
2024-01-08T02:48:34.333Z,100528.66
2024-01-08T02:51:01.130Z,100527.78
2024-01-08T02:53:28.005Z,100528.63
2024-01-08T02:55:54.765Z,100533.97
2024-01-08T02:58:21.581Z,100530.41
2024-01-08T03:00:48.377Z,100541.94
2024-01-08T03:03:15.209Z,100548.19
2024-01-08T03:05:42.050Z,100542.88
2024-01-08T03:08:08.862Z,100542.00
2024-01-08T03:10:35.705Z,100550.03
2024-01-08T03:13:02.510Z,100547.41
2024-01-08T03:15:29.342Z,100557.19
2024-01-08T03:17:56.095Z,100545.63
2024-01-08T03:20:24.444Z,100549.16
2024-01-08T03:22:53.246Z,100542.00
2024-01-08T03:25:20.109Z,100552.66
2024-01-08T03:27:46.889Z,100549.16
2024-01-08T03:30:14.043Z,100557.16
2024-01-08T03:32:41.031Z,100564.22
2024-01-08T03:35:08.258Z,100574.03
2024-01-08T03:37:35.618Z,100566.94
2024-01-08T03:40:03.556Z,100566.97
2024-01-08T03:42:30.415Z,100571.44
2024-01-08T03:44:57.158Z,100576.75
2024-01-08T03:47:24.029Z,100567.88
2024-01-08T03:49:50.937Z,100568.75
2024-01-08T03:52:17.993Z,100570.53
2024-01-08T03:54:44.684Z,100572.28
2024-01-08T03:57:11.479Z,100577.63
2024-01-08T03:59:38.262Z,100578.50
2024-01-08T04:02:05.357Z,100580.28
2024-01-08T04:04:32.189Z,100579.41
2024-01-08T04:06:59.044Z,100586.56
2024-01-08T04:09:26.521Z,100599.91
2024-01-08T04:11:53.525Z,100599.94
2024-01-08T04:14:20.364Z,100594.66
2024-01-08T04:16:47.076Z,100594.69
2024-01-08T04:19:13.995Z,100598.19
2024-01-08T04:21:40.813Z,100601.75
2024-01-08T04:24:07.639Z,100602.63
2024-01-08T04:26:34.481Z,100598.19
2024-01-08T04:29:01.259Z,100591.94
2024-01-08T04:31:29.866Z,100599.94
2024-01-08T04:33:56.657Z,100602.59
2024-01-08T04:36:23.539Z,100599.06
2024-01-08T04:38:50.324Z,100601.69
2024-01-08T04:41:21.217Z,100615.00
2024-01-08T04:43:49.354Z,100613.25
2024-01-08T04:46:16.085Z,100616.88
2024-01-08T04:48:43.458Z,100622.25
2024-01-08T04:51:21.054Z,100624.13
2024-01-08T04:53:47.822Z,100638.34
2024-01-08T04:56:25.220Z,100633.91
2024-01-08T04:58:55.923Z,100634.81
2024-01-08T05:01:23.595Z,100638.41
2024-01-08T05:03:50.820Z,100634.00
2024-01-08T05:06:17.987Z,100627.81
2024-01-08T05:08:44.755Z,100633.16
2024-01-08T05:11:12.324Z,100624.28
2024-01-08T05:13:40.087Z,100624.28
2024-01-08T05:16:07.652Z,100623.38
2024-01-08T05:18:34.518Z,100627.81
2024-01-08T05:21:01.349Z,100630.47
2024-01-08T05:23:28.129Z,100633.09
2024-01-08T05:25:54.998Z,100624.22
2024-01-08T05:28:21.708Z,100635.75
2024-01-08T05:30:48.497Z,100644.66
2024-01-08T05:33:15.193Z,100638.50
2024-01-08T05:35:42.402Z,100645.63
2024-01-08T05:38:09.293Z,100638.56
2024-01-08T05:40:36.038Z,100650.09
2024-01-08T05:43:02.779Z,100654.59
2024-01-08T05:45:29.609Z,100669.66
2024-01-08T05:47:57.312Z,100668.78
2024-01-08T05:50:27.010Z,100671.47
2024-01-08T05:52:55.326Z,100669.72
2024-01-08T05:55:23.133Z,100673.25
2024-01-08T05:57:49.889Z,100679.50
2024-01-08T06:00:17.629Z,100675.06
2024-01-08T06:02:44.525Z,100681.28
2024-01-08T06:05:15.645Z,100683.06
2024-01-08T06:07:44.676Z,100688.38
2024-01-08T06:10:11.540Z,100685.75
2024-01-08T06:12:38.818Z,100687.53
2024-01-08T06:15:06.675Z,100693.75
2024-01-08T06:17:33.961Z,100702.63
2024-01-08T06:20:00.937Z,100704.41
2024-01-08T06:22:27.801Z,100703.50
2024-01-08T06:24:54.545Z,100707.97
2024-01-08T06:27:21.222Z,100718.59
2024-01-08T06:29:48.005Z,100715.03
2024-01-08T06:32:15.003Z,100717.72
2024-01-08T06:34:41.856Z,100715.03
2024-01-08T06:37:08.802Z,100719.47
2024-01-08T06:39:35.547Z,100716.75
2024-01-08T06:42:02.270Z,100718.50
2024-01-08T06:44:29.095Z,100720.22
2024-01-08T06:46:56.396Z,100721.91
2024-01-08T06:49:23.310Z,100727.22
2024-01-08T06:51:50.362Z,100724.50
2024-01-08T06:54:17.509Z,100726.28
2024-01-08T06:56:44.943Z,100731.59
2024-01-08T06:59:12.132Z,100737.78
2024-01-08T07:01:38.959Z,100743.13
2024-01-08T07:04:05.867Z,100750.25
2024-01-08T07:06:33.453Z,100753.81
2024-01-08T07:09:00.409Z,100759.19
2024-01-08T07:11:27.295Z,100757.44
2024-01-08T07:13:54.250Z,100762.75
2024-01-08T07:16:21.167Z,100771.66
2024-01-08T07:18:48.200Z,100775.22
2024-01-08T07:21:18.068Z,100770.78
2024-01-08T07:23:46.483Z,100777.88
2024-01-08T07:26:16.204Z,100780.53
2024-01-08T07:28:47.139Z,100778.78
2024-01-08T07:31:16.490Z,100778.69
2024-01-08T07:33:43.538Z,100780.44
2024-01-08T07:36:11.087Z,100779.56
2024-01-08T07:38:38.370Z,100776.91
2024-01-08T07:41:08.867Z,100788.44
2024-01-08T07:43:39.073Z,100780.47
2024-01-08T07:46:06.344Z,100785.78
2024-01-08T07:48:33.548Z,100791.09
2024-01-08T07:51:01.850Z,100795.50
2024-01-08T07:53:28.784Z,100805.31
2024-01-08T07:55:55.706Z,100811.63
2024-01-08T07:58:28.471Z,100810.00
2024-01-08T08:01:02.902Z,100816.34
2024-01-08T08:03:30.272Z,100815.59
2024-01-08T08:05:59.526Z,100824.53
2024-01-08T08:08:27.244Z,100825.50
2024-01-08T08:10:54.171Z,100835.31
2024-01-08T08:13:21.003Z,100838.03
2024-01-08T08:15:47.712Z,100846.03
2024-01-08T08:18:14.806Z,100849.56
2024-01-08T08:20:41.885Z,100850.50
2024-01-08T08:23:08.780Z,100856.69
2024-01-08T08:25:35.697Z,100855.84
2024-01-08T08:28:03.463Z,100863.88
2024-01-08T08:30:30.864Z,100873.63
2024-01-08T08:33:00.266Z,100875.41
2024-01-08T08:35:27.686Z,100882.50
2024-01-08T08:37:55.170Z,100873.63
2024-01-08T08:40:23.823Z,100870.06
2024-01-08T08:42:51.189Z,100867.31
2024-01-08T08:45:19.278Z,100876.16
2024-01-08T08:47:46.814Z,100877.88
2024-01-08T08:50:14.178Z,100885.84
2024-01-08T08:52:41.129Z,100891.09
2024-01-08T08:55:11.279Z,100882.19
2024-01-08T08:57:38.908Z,100887.47
2024-01-08T09:00:12.013Z,100893.69
2024-01-08T09:02:40.144Z,100896.44
2024-01-08T09:07:42.292Z,100907.97
2024-01-08T09:10:09.439Z,100909.69
2024-01-08T09:12:36.256Z,100911.44
2024-01-08T09:15:03.931Z,100911.38
2024-01-08T09:17:33.067Z,100922.81
2024-01-08T09:19:59.947Z,100924.50
2024-01-08T09:22:26.741Z,100927.94
2024-01-08T09:24:53.697Z,100923.44
2024-01-08T09:27:20.889Z,100933.16
2024-01-08T09:29:47.778Z,100932.22
2024-01-08T09:32:14.785Z,100942.00
2024-01-08T09:34:42.239Z,100942.03
2024-01-08T09:37:09.162Z,100950.88
2024-01-08T09:39:36.782Z,100946.38
2024-01-08T09:42:07.038Z,100951.63
2024-01-08T09:44:36.887Z,100953.28
2024-01-08T09:47:05.382Z,100962.09
2024-01-08T09:49:34.702Z,100960.31
2024-01-08T09:52:06.597Z,100955.00
2024-01-08T09:54:34.969Z,100958.56
2024-01-08T09:57:01.714Z,100960.31
2024-01-08T09:59:29.336Z,100964.75
2024-01-08T10:01:57.877Z,100967.34
2024-01-08T10:04:27.853Z,100959.28
2024-01-08T10:07:09.237Z,100953.00
2024-01-08T10:09:36.932Z,100958.22
2024-01-08T10:12:04.371Z,100956.41
2024-01-08T10:14:31.751Z,100956.44
2024-01-08T10:17:02.647Z,100952.88
2024-01-08T10:19:30.873Z,100960.84
2024-01-08T10:22:10.097Z,100962.69
2024-01-08T10:24:39.666Z,100959.16
2024-01-08T10:27:09.249Z,100957.41
2024-01-08T10:29:42.260Z,100963.59
2024-01-08T10:32:12.008Z,100966.22
2024-01-08T10:34:40.139Z,100962.66
2024-01-08T10:37:07.367Z,100971.44
2024-01-08T10:39:44.572Z,100966.94
2024-01-08T10:42:18.229Z,100973.16
2024-01-08T10:44:45.141Z,100970.63
2024-01-08T10:47:25.545Z,100964.44
2024-01-08T10:49:58.268Z,100967.03
2024-01-08T10:52:35.234Z,100973.16
2024-01-08T10:55:04.066Z,100968.72
2024-01-08T10:57:57.046Z,100966.13
2024-01-08T11:00:24.381Z,100968.84
2024-01-08T11:02:52.806Z,100968.81
2024-01-08T11:05:22.941Z,100966.06
2024-01-08T11:07:51.846Z,100968.63
2024-01-08T11:10:23.148Z,100966.66
2024-01-08T11:12:55.665Z,100960.41
2024-01-08T11:15:27.358Z,100962.25
2024-01-08T11:17:55.697Z,100962.28
2024-01-08T11:20:42.629Z,100967.63
2024-01-08T11:23:41.053Z,100970.31
2024-01-08T11:26:15.344Z,100966.72
2024-01-08T11:28:42.816Z,100962.31
2024-01-08T11:31:52.517Z,100965.91
2024-01-08T11:34:38.713Z,100957.97
2024-01-08T11:37:14.428Z,100961.47
2024-01-08T11:39:42.550Z,100964.00
2024-01-08T11:42:10.173Z,100961.34
2024-01-08T11:44:37.271Z,100964.00
2024-01-08T11:47:04.956Z,100960.44
2024-01-08T11:49:32.039Z,100952.41
2024-01-08T11:52:02.065Z,100958.56
2024-01-08T11:54:29.130Z,100953.19
2024-01-08T11:56:56.765Z,100956.78
2024-01-08T11:59:34.621Z,100958.69
2024-01-08T12:02:30.920Z,100960.63
2024-01-08T12:04:59.538Z,100964.19
2024-01-08T12:07:28.290Z,100964.19
2024-01-08T12:09:55.932Z,100965.09
2024-01-08T12:12:26.473Z,100970.41
2024-01-08T12:14:53.839Z,100965.97
2024-01-08T12:17:21.082Z,100972.97
2024-01-08T12:19:55.708Z,100970.22
2024-01-08T12:22:25.077Z,100966.66
2024-01-08T12:24:53.430Z,100966.69
2024-01-08T12:27:24.409Z,100973.91
2024-01-08T12:29:51.775Z,100967.69
2024-01-08T12:32:21.175Z,100967.69
2024-01-08T12:34:48.618Z,100970.41
2024-01-08T12:37:17.691Z,100969.50
2024-01-08T12:39:45.550Z,100966.91
2024-01-08T12:42:16.244Z,100963.53
2024-01-08T12:44:44.952Z,100961.00
2024-01-08T12:47:12.420Z,100961.09
2024-01-08T12:49:39.729Z,100967.41
2024-01-08T12:52:10.225Z,100971.00
2024-01-08T12:54:40.642Z,100967.44
2024-01-08T12:57:08.007Z,100974.56
2024-01-08T12:59:36.162Z,100971.91
2024-01-08T13:02:04.464Z,100982.56
2024-01-08T13:04:31.536Z,100974.56
2024-01-08T13:06:58.570Z,100978.13
2024-01-08T13:09:25.530Z,100982.56
2024-01-08T13:11:52.717Z,100982.56
2024-01-08T13:14:20.270Z,100983.44
2024-01-08T13:16:49.334Z,100982.56
2024-01-08T13:19:16.426Z,100991.44
2024-01-08T13:21:43.678Z,100996.72
2024-01-08T13:24:11.902Z,100993.13
2024-01-08T13:26:39.968Z,100994.91
2024-01-08T13:29:11.323Z,101001.03
2024-01-08T13:31:40.199Z,101002.78
2024-01-08T13:34:08.092Z,101003.63
2024-01-08T13:36:36.098Z,101001.00
2024-01-08T13:39:02.993Z,101003.66
2024-01-08T13:41:31.954Z,101012.53
2024-01-08T13:43:58.890Z,101015.16
2024-01-08T13:46:26.076Z,101023.13
2024-01-08T13:48:53.056Z,101025.78
2024-01-08T13:51:20.114Z,101023.19
2024-01-08T13:53:46.785Z,101024.97
2024-01-08T13:56:13.561Z,101033.72
2024-01-08T13:58:40.237Z,101038.88
2024-01-08T14:01:07.726Z,101044.09
2024-01-08T14:03:34.586Z,101044.81
2024-01-08T14:06:01.500Z,101044.69
2024-01-08T14:08:28.597Z,101049.00
2024-01-08T14:10:55.482Z,101054.22
2024-01-08T14:13:22.217Z,101055.03
2024-01-08T14:15:48.938Z,101054.94
2024-01-08T14:18:15.725Z,101056.66
2024-01-08T14:20:42.535Z,101061.03
2024-01-08T14:23:09.644Z,101070.78
2024-01-08T14:25:36.543Z,101073.38
2024-01-08T14:28:03.501Z,101075.09
2024-01-08T14:30:30.267Z,101071.50
2024-01-08T14:32:58.004Z,101085.69
2024-01-08T14:35:24.989Z,101078.56
2024-01-08T14:37:51.739Z,101081.22
2024-01-08T14:40:28.094Z,101084.78
2024-01-08T14:42:56.811Z,101083.84
2024-01-08T14:45:23.736Z,101089.19
2024-01-08T14:47:50.753Z,101091.84
2024-01-08T14:50:20.272Z,101096.31
2024-01-08T14:52:49.332Z,101092.72
2024-01-08T14:55:16.167Z,101097.16
2024-01-08T14:57:42.912Z,101106.94
2024-01-08T15:00:11.460Z,101099.84
2024-01-08T15:02:40.365Z,101111.41
2024-01-08T15:05:08.079Z,101115.88
2024-01-08T15:07:34.877Z,101122.13
2024-01-08T15:10:02.528Z,101125.69
2024-01-08T15:12:31.079Z,101131.00
2024-01-08T15:14:57.858Z,101131.03
2024-01-08T15:17:24.845Z,101135.50
2024-01-08T15:19:52.632Z,101136.41
2024-01-08T15:22:19.945Z,101144.41
2024-01-08T15:24:46.777Z,101142.63
2024-01-08T15:27:13.696Z,101156.00
2024-01-08T15:29:40.962Z,101159.56
2024-01-08T15:32:09.038Z,101156.03
2024-01-08T15:34:35.909Z,101154.25
2024-01-08T15:37:02.916Z,101160.50
2024-01-08T15:39:29.694Z,101162.31
2024-01-08T15:41:56.490Z,101165.88
2024-01-08T15:44:23.257Z,101173.91
2024-01-08T15:46:50.052Z,101175.69
2024-01-08T15:49:16.833Z,101180.16
2024-01-08T15:51:43.642Z,101181.09
2024-01-08T15:54:10.352Z,101197.13
2024-01-08T15:56:37.372Z,101193.59
2024-01-08T15:59:04.201Z,101196.28
2024-01-08T16:01:31.828Z,101201.63
2024-01-08T16:03:58.821Z,101206.09
2024-01-08T16:06:25.720Z,101204.34
2024-01-08T16:08:52.723Z,101214.19
2024-01-08T16:11:19.622Z,101217.75
2024-01-08T16:13:46.737Z,101220.47
2024-01-08T16:16:13.575Z,101224.94
2024-01-08T16:18:41.807Z,101230.31
2024-01-08T16:21:08.905Z,101233.00
2024-01-08T16:23:36.309Z,101235.66
2024-01-08T16:26:03.549Z,101244.56
2024-01-08T16:28:30.335Z,101251.72
2024-01-08T16:30:58.485Z,101251.75
2024-01-08T16:33:25.468Z,101255.31
2024-01-08T16:35:52.761Z,101258.00
2024-01-08T16:38:20.167Z,101258.00
2024-01-08T16:40:48.121Z,101259.81
2024-01-08T16:43:15.802Z,101269.59
2024-01-08T16:45:42.612Z,101266.06
2024-01-08T16:48:09.462Z,101275.88
2024-01-08T16:50:36.599Z,101275.00
2024-01-08T16:53:04.420Z,101276.78
2024-01-08T16:55:31.282Z,101282.13
2024-01-08T16:57:58.153Z,101280.38
2024-01-08T17:00:24.951Z,101287.50
2024-01-08T17:02:51.828Z,101296.38
2024-01-08T17:05:19.821Z,101301.72
2024-01-08T17:07:46.623Z,101304.38
2024-01-08T17:10:13.583Z,101302.63
2024-01-08T17:12:40.249Z,101315.06
2024-01-08T17:15:07.516Z,101309.75
2024-01-08T17:17:35.495Z,101315.06
2024-01-08T17:20:05.358Z,101312.41
2024-01-08T17:22:32.512Z,101316.84
2024-01-08T17:25:03.408Z,101317.75
2024-01-08T17:27:30.986Z,101318.63
2024-01-08T17:29:58.280Z,101326.63
2024-01-08T17:32:25.343Z,101328.44
2024-01-08T17:34:52.268Z,101331.13
2024-01-08T17:37:19.925Z,101331.16
2024-01-08T17:39:47.629Z,101337.38
2024-01-08T17:42:15.120Z,101343.63
2024-01-08T17:44:43.383Z,101351.63
2024-01-08T17:47:10.604Z,101353.41
2024-01-08T17:49:38.841Z,101346.31
2024-01-08T17:52:06.721Z,101348.13
2024-01-08T17:54:34.700Z,101360.56
2024-01-08T17:57:01.903Z,101366.78
2024-01-08T17:59:29.530Z,101361.47
2024-01-08T18:01:56.393Z,101369.47
2024-01-08T18:04:23.497Z,101376.59
2024-01-08T18:06:50.624Z,101381.94
2024-01-08T18:09:17.628Z,101376.63
2024-01-08T18:11:45.723Z,101383.72
2024-01-08T18:14:15.991Z,101386.41
2024-01-08T18:16:44.939Z,101389.06
2024-01-08T18:19:12.099Z,101389.06
2024-01-08T18:21:42.383Z,101397.06
2024-01-08T18:24:20.203Z,101400.63
2024-01-08T18:26:54.798Z,101405.06
2024-01-08T18:29:21.689Z,101406.88
2024-01-08T18:31:48.621Z,101413.09
2024-01-08T18:34:16.694Z,101410.44
2024-01-08T18:36:44.173Z,101418.44
2024-01-08T18:39:13.202Z,101421.09
2024-01-08T18:41:40.463Z,101430.88
2024-01-08T18:44:07.403Z,101442.44
2024-01-08T18:46:34.306Z,101439.78
2024-01-08T18:49:01.202Z,101442.44
2024-01-08T18:51:28.449Z,101449.53
2024-01-08T18:53:56.028Z,101457.53
2024-01-08T18:56:22.956Z,101456.66
2024-01-08T18:58:49.720Z,101463.75
2024-01-08T19:01:17.629Z,101470.88
2024-01-08T19:03:44.530Z,101467.31
2024-01-08T19:06:11.593Z,101477.09
2024-01-08T19:08:39.623Z,101472.66
2024-01-08T19:11:06.568Z,101481.53
2024-01-08T19:13:37.446Z,101485.09
2024-01-08T19:16:06.392Z,101478.88
2024-01-08T19:18:38.861Z,101497.53
2024-01-08T19:21:06.337Z,101492.19
2024-01-08T19:23:33.220Z,101495.75
2024-01-08T19:26:01.505Z,101498.41
2024-01-08T19:28:28.457Z,101509.97
2024-01-08T19:30:56.114Z,101502.84
2024-01-08T19:33:23.185Z,101513.50
2024-01-08T19:35:50.231Z,101524.16
2024-01-08T19:38:17.142Z,101528.59
2024-01-08T19:40:43.905Z,101527.72
2024-01-08T19:43:10.749Z,101525.94
2024-01-08T19:45:37.773Z,101526.84
2024-01-08T19:48:05.010Z,101538.38
2024-01-08T19:50:31.899Z,101534.84
2024-01-08T19:52:58.640Z,101535.72
2024-01-08T19:55:25.330Z,101535.72
2024-01-08T19:57:52.167Z,101538.38
2024-01-08T20:00:19.170Z,101546.38
2024-01-08T20:02:45.985Z,101547.25
2024-01-08T20:05:12.974Z,101549.03
2024-01-08T20:07:40.048Z,101554.38
2024-01-08T20:10:07.248Z,101557.03
2024-01-08T20:12:33.996Z,101561.47
2024-01-08T20:15:00.793Z,101562.34
2024-01-08T20:17:27.664Z,101564.13
2024-01-08T20:19:57.748Z,101566.78
2024-01-08T20:22:25.024Z,101570.34
2024-01-08T20:24:52.363Z,101573.00
2024-01-08T20:27:19.245Z,101574.78
2024-01-08T20:29:46.849Z,101570.34
2024-01-08T20:32:13.652Z,101575.66
2024-01-08T20:34:40.422Z,101580.09
2024-01-08T20:37:07.231Z,101576.50
2024-01-08T20:39:34.089Z,101581.84
2024-01-08T20:42:01.066Z,101593.34
2024-01-08T20:44:28.844Z,101587.16
2024-01-08T20:46:55.610Z,101595.16
2024-01-08T20:49:27.867Z,101604.00
2024-01-08T20:51:55.772Z,101595.16
2024-01-08T20:54:23.174Z,101598.69
2024-01-08T20:56:50.468Z,101607.53
2024-01-08T20:59:17.453Z,101607.53
2024-01-08T21:01:44.308Z,101610.22
2024-01-08T21:04:11.276Z,101609.31
2024-01-08T21:06:38.357Z,101610.22
2024-01-08T21:09:06.088Z,101614.63
2024-01-08T21:11:33.455Z,101616.41
2024-01-08T21:14:00.254Z,101621.72
2024-01-08T21:16:27.144Z,101625.28
2024-01-08T21:18:55.300Z,101633.25
2024-01-08T21:21:22.273Z,101640.31
2024-01-08T21:23:49.142Z,101639.44
2024-01-08T21:26:16.270Z,101642.09
2024-01-08T21:28:43.544Z,101647.41
2024-01-08T21:31:13.500Z,101642.09
2024-01-08T21:33:42.105Z,101648.28
2024-01-08T21:36:10.797Z,101654.50
2024-01-08T21:38:41.245Z,101648.28
2024-01-08T21:41:08.081Z,101648.28
2024-01-08T21:43:35.362Z,101664.25
2024-01-08T21:46:03.397Z,101667.78
2024-01-08T21:48:31.505Z,101664.25
2024-01-08T21:50:58.264Z,101675.75
2024-01-08T21:53:25.273Z,101676.66
2024-01-08T21:55:51.995Z,101678.41
2024-01-08T21:58:18.824Z,101681.97
2024-01-08T22:00:45.609Z,101679.31
2024-01-08T22:03:12.460Z,101673.97
2024-01-08T22:05:39.368Z,101679.31
2024-01-08T22:08:06.303Z,101680.19
2024-01-08T22:10:33.120Z,101679.31
2024-01-08T22:12:59.894Z,101679.28
2024-01-08T22:15:26.634Z,101673.97
2024-01-08T22:17:53.402Z,101678.41
2024-01-08T22:20:20.349Z,101678.41
2024-01-08T22:22:48.156Z,101681.94
2024-01-08T22:25:15.288Z,101686.38
2024-01-08T22:27:42.899Z,101683.72
2024-01-08T22:30:10.924Z,101685.50
2024-01-08T22:32:38.080Z,101681.06
2024-01-08T22:35:05.229Z,101685.50
2024-01-08T22:37:32.416Z,101683.72
2024-01-08T22:40:00.076Z,101685.50
2024-01-08T22:42:29.880Z,101690.81
2024-01-08T22:44:57.352Z,101697.03
2024-01-08T22:47:24.370Z,101689.03
2024-01-08T22:49:52.101Z,101701.44
2024-01-08T22:52:19.090Z,101697.03
2024-01-08T22:54:45.826Z,101693.47
2024-01-08T22:57:12.666Z,101697.03
2024-01-08T22:59:42.019Z,101697.91
2024-01-08T23:02:08.935Z,101712.97
2024-01-08T23:04:35.708Z,101705.00
2024-01-08T23:07:02.548Z,101704.09
2024-01-08T23:09:29.453Z,101698.78
2024-01-08T23:11:56.399Z,101697.91
2024-01-08T23:14:23.834Z,101698.78
2024-01-08T23:16:51.419Z,101696.13
2024-01-08T23:19:18.890Z,101689.03
2024-01-08T23:21:45.692Z,101699.69
2024-01-08T23:24:12.861Z,101699.69
2024-01-08T23:26:44.264Z,101701.44
2024-01-08T23:29:11.673Z,101701.44
2024-01-08T23:31:38.524Z,101700.56
2024-01-08T23:34:14.311Z,101698.78
2024-01-08T23:36:47.405Z,101701.44
2024-01-08T23:39:14.315Z,101698.78
2024-01-08T23:41:41.169Z,101698.78
2024-01-08T23:44:09.827Z,101690.81
2024-01-08T23:46:37.620Z,101695.22
2024-01-08T23:49:04.483Z,101696.09
2024-01-08T23:51:31.335Z,101686.34
2024-01-08T23:53:58.084Z,101693.44
2024-01-08T23:56:24.894Z,101694.31
2024-01-08T23:58:51.678Z,101702.31
